sensor_id;sensor_type;location;lat;lon;timestamp;P1;durP1;ratioP1;P2;durP2;ratioP2
2564;SDS011;1292;48.020;7.822;2022-07-23T05:47:57;10.90;;;7.93;;
2564;SDS011;1292;48.020;7.822;2022-07-23T05:50:24;9.87;;;8.23;;
2564;SDS011;1292;48.020;7.822;2022-07-23T05:52:51;8.70;;;7.90;;
2564;SDS011;1292;48.020;7.822;2022-07-23T05:55:18;8.00;;;7.40;;
2564;SDS011;1292;48.020;7.822;2022-07-23T05:57:45;7.83;;;7.13;;
2564;SDS011;1292;48.020;7.822;2022-07-23T06:00:12;7.80;;;6.97;;
2564;SDS011;1292;48.020;7.822;2022-07-23T06:02:39;8.17;;;7.53;;
2564;SDS011;1292;48.020;7.822;2022-07-23T06:05:07;9.90;;;8.97;;
2564;SDS011;1292;48.020;7.822;2022-07-23T06:07:35;12.60;;;8.67;;
2564;SDS011;1292;48.020;7.822;2022-07-23T06:10:02;9.53;;;8.73;;
2564;SDS011;1292;48.020;7.822;2022-07-23T06:12:29;9.30;;;8.40;;
2564;SDS011;1292;48.020;7.822;2022-07-23T06:14:56;9.50;;;8.40;;
2564;SDS011;1292;48.020;7.822;2022-07-23T06:17:23;10.30;;;8.37;;
2564;SDS011;1292;48.020;7.822;2022-07-23T06:19:50;7.87;;;6.80;;
2564;SDS011;1292;48.020;7.822;2022-07-23T06:22:19;12.23;;;8.93;;
2564;SDS011;1292;48.020;7.822;2022-07-23T06:24:46;8.80;;;7.10;;
2564;SDS011;1292;48.020;7.822;2022-07-23T06:27:16;9.20;;;8.30;;
2564;SDS011;1292;48.020;7.822;2022-07-23T06:29:43;10.20;;;8.27;;
2564;SDS011;1292;48.020;7.822;2022-07-23T06:32:10;11.47;;;8.40;;
2564;SDS011;1292;48.020;7.822;2022-07-23T06:34:37;11.90;;;8.90;;
2564;SDS011;1292;48.020;7.822;2022-07-23T06:37:04;14.30;;;10.27;;
2564;SDS011;1292;48.020;7.822;2022-07-23T06:39:32;15.00;;;9.20;;
2564;SDS011;1292;48.020;7.822;2022-07-23T06:41:59;9.20;;;8.23;;
2564;SDS011;1292;48.020;7.822;2022-07-23T06:44:26;9.37;;;8.47;;
2564;SDS011;1292;48.020;7.822;2022-07-23T06:46:53;8.53;;;7.73;;
2564;SDS011;1292;48.020;7.822;2022-07-23T06:49:20;9.53;;;8.63;;
2564;SDS011;1292;48.020;7.822;2022-07-23T06:51:47;11.33;;;8.00;;
2564;SDS011;1292;48.020;7.822;2022-07-23T06:54:13;8.93;;;7.23;;
2564;SDS011;1292;48.020;7.822;2022-07-23T06:56:41;12.00;;;8.67;;
2564;SDS011;1292;48.020;7.822;2022-07-23T06:59:08;10.83;;;7.70;;
2564;SDS011;1292;48.020;7.822;2022-07-23T07:01:35;10.83;;;8.23;;
2564;SDS011;1292;48.020;7.822;2022-07-23T07:04:02;9.70;;;7.50;;
2564;SDS011;1292;48.020;7.822;2022-07-23T07:06:29;8.43;;;7.73;;
2564;SDS011;1292;48.020;7.822;2022-07-23T07:08:56;8.40;;;7.70;;
2564;SDS011;1292;48.020;7.822;2022-07-23T07:11:23;10.30;;;9.17;;
2564;SDS011;1292;48.020;7.822;2022-07-23T07:13:51;8.30;;;7.50;;
2564;SDS011;1292;48.020;7.822;2022-07-23T07:16:18;7.50;;;6.90;;
2564;SDS011;1292;48.020;7.822;2022-07-23T07:18:45;8.73;;;7.93;;
2564;SDS011;1292;48.020;7.822;2022-07-23T07:21:12;8.13;;;7.20;;
2564;SDS011;1292;48.020;7.822;2022-07-23T07:23:39;10.80;;;7.97;;
2564;SDS011;1292;48.020;7.822;2022-07-23T07:26:06;7.83;;;7.13;;
2564;SDS011;1292;48.020;7.822;2022-07-23T07:28:33;8.93;;;8.13;;
2564;SDS011;1292;48.020;7.822;2022-07-23T07:31:01;9.27;;;8.50;;
2564;SDS011;1292;48.020;7.822;2022-07-23T07:33:28;8.20;;;7.40;;
2564;SDS011;1292;48.020;7.822;2022-07-23T07:35:54;8.80;;;8.13;;
2564;SDS011;1292;48.020;7.822;2022-07-23T07:38:21;7.73;;;7.10;;
2564;SDS011;1292;48.020;7.822;2022-07-23T07:40:49;8.17;;;7.57;;
2564;SDS011;1292;48.020;7.822;2022-07-23T07:43:15;9.50;;;8.53;;
2564;SDS011;1292;48.020;7.822;2022-07-23T07:45:42;9.57;;;8.27;;
2564;SDS011;1292;48.020;7.822;2022-07-23T07:48:10;9.63;;;7.33;;
2564;SDS011;1292;48.020;7.822;2022-07-23T07:50:37;7.93;;;7.20;;
2564;SDS011;1292;48.020;7.822;2022-07-23T07:53:04;8.20;;;7.43;;
2564;SDS011;1292;48.020;7.822;2022-07-23T07:55:31;8.73;;;7.93;;
2564;SDS011;1292;48.020;7.822;2022-07-23T07:57:58;8.47;;;7.67;;
2564;SDS011;1292;48.020;7.822;2022-07-23T08:00:25;8.40;;;7.23;;
2564;SDS011;1292;48.020;7.822;2022-07-23T08:02:52;8.87;;;8.00;;
2564;SDS011;1292;48.020;7.822;2022-07-23T08:05:22;8.13;;;7.43;;
2564;SDS011;1292;48.020;7.822;2022-07-23T08:07:54;9.17;;;8.30;;
2564;SDS011;1292;48.020;7.822;2022-07-23T08:10:21;9.43;;;8.53;;
2564;SDS011;1292;48.020;7.822;2022-07-23T08:12:49;7.80;;;7.10;;
2564;SDS011;1292;48.020;7.822;2022-07-23T08:15:18;10.00;;;7.10;;
2564;SDS011;1292;48.020;7.822;2022-07-23T08:17:46;9.03;;;8.13;;
2564;SDS011;1292;48.020;7.822;2022-07-23T08:20:14;8.90;;;7.80;;
2564;SDS011;1292;48.020;7.822;2022-07-23T08:22:45;8.47;;;7.77;;
2564;SDS011;1292;48.020;7.822;2022-07-23T08:25:13;10.87;;;8.30;;
2564;SDS011;1292;48.020;7.822;2022-07-23T08:27:40;6.80;;;6.20;;
2564;SDS011;1292;48.020;7.822;2022-07-23T08:30:07;12.50;;;7.60;;
2564;SDS011;1292;48.020;7.822;2022-07-23T08:32:47;7.43;;;6.83;;
2564;SDS011;1292;48.020;7.822;2022-07-23T08:35:14;8.47;;;7.33;;
2564;SDS011;1292;48.020;7.822;2022-07-23T08:37:41;7.80;;;7.20;;
2564;SDS011;1292;48.020;7.822;2022-07-23T08:40:10;11.00;;;7.87;;
2564;SDS011;1292;48.020;7.822;2022-07-23T08:42:37;8.43;;;5.90;;
2564;SDS011;1292;48.020;7.822;2022-07-23T08:45:05;6.80;;;6.20;;
2564;SDS011;1292;48.020;7.822;2022-07-23T08:47:34;6.67;;;6.00;;
2564;SDS011;1292;48.020;7.822;2022-07-23T08:50:03;8.20;;;7.50;;
2564;SDS011;1292;48.020;7.822;2022-07-23T08:52:30;7.90;;;7.20;;
2564;SDS011;1292;48.020;7.822;2022-07-23T08:54:58;7.37;;;6.87;;
2564;SDS011;1292;48.020;7.822;2022-07-23T08:57:26;7.90;;;6.97;;
2564;SDS011;1292;48.020;7.822;2022-07-23T08:59:53;13.10;;;7.07;;
2564;SDS011;1292;48.020;7.822;2022-07-23T09:02:20;7.13;;;6.53;;
2564;SDS011;1292;48.020;7.822;2022-07-23T09:04:47;7.97;;;7.27;;
2564;SDS011;1292;48.020;7.822;2022-07-23T09:07:14;7.10;;;6.40;;
2564;SDS011;1292;48.020;7.822;2022-07-23T09:09:41;9.27;;;7.37;;
2564;SDS011;1292;48.020;7.822;2022-07-23T09:12:09;7.20;;;6.60;;
2564;SDS011;1292;48.020;7.822;2022-07-23T09:14:38;7.10;;;6.40;;
2564;SDS011;1292;48.020;7.822;2022-07-23T09:17:10;7.73;;;7.03;;
2564;SDS011;1292;48.020;7.822;2022-07-23T09:19:38;7.50;;;6.80;;
2564;SDS011;1292;48.020;7.822;2022-07-23T09:22:18;7.50;;;6.73;;
2564;SDS011;1292;48.020;7.822;2022-07-23T09:25:08;7.37;;;6.67;;
2564;SDS011;1292;48.020;7.822;2022-07-23T09:27:46;7.23;;;6.53;;
2564;SDS011;1292;48.020;7.822;2022-07-23T09:30:16;8.07;;;7.27;;
2564;SDS011;1292;48.020;7.822;2022-07-23T09:32:43;7.77;;;7.07;;
2564;SDS011;1292;48.020;7.822;2022-07-23T09:35:10;7.50;;;6.80;;
2564;SDS011;1292;48.020;7.822;2022-07-23T09:37:37;7.17;;;6.50;;
2564;SDS011;1292;48.020;7.822;2022-07-23T09:40:04;7.53;;;6.77;;
2564;SDS011;1292;48.020;7.822;2022-07-23T09:42:32;7.67;;;7.07;;
2564;SDS011;1292;48.020;7.822;2022-07-23T09:45:00;7.07;;;6.37;;
2564;SDS011;1292;48.020;7.822;2022-07-23T09:47:29;8.30;;;7.53;;
2564;SDS011;1292;48.020;7.822;2022-07-23T09:49:57;7.87;;;7.17;;
2564;SDS011;1292;48.020;7.822;2022-07-23T09:52:26;7.03;;;6.43;;
2564;SDS011;1292;48.020;7.822;2022-07-23T09:54:57;6.20;;;5.63;;
2564;SDS011;1292;48.020;7.822;2022-07-23T09:57:25;8.10;;;7.50;;
2564;SDS011;1292;48.020;7.822;2022-07-23T09:59:53;6.80;;;6.20;;
2564;SDS011;1292;48.020;7.822;2022-07-23T10:02:23;7.40;;;6.80;;
2564;SDS011;1292;48.020;7.822;2022-07-23T10:04:53;7.87;;;6.93;;
2564;SDS011;1292;48.020;7.822;2022-07-23T10:07:21;7.37;;;6.67;;
2564;SDS011;1292;48.020;7.822;2022-07-23T10:09:51;8.03;;;6.80;;
2564;SDS011;1292;48.020;7.822;2022-07-23T10:12:19;6.70;;;6.20;;
2564;SDS011;1292;48.020;7.822;2022-07-23T10:14:56;6.87;;;6.17;;
2564;SDS011;1292;48.020;7.822;2022-07-23T10:17:23;6.43;;;5.83;;
2564;SDS011;1292;48.020;7.822;2022-07-23T10:19:50;7.03;;;6.43;;
2564;SDS011;1292;48.020;7.822;2022-07-23T10:22:19;9.13;;;7.27;;
2564;SDS011;1292;48.020;7.822;2022-07-23T10:24:51;7.43;;;6.73;;
2564;SDS011;1292;48.020;7.822;2022-07-23T10:27:34;6.70;;;6.20;;
2564;SDS011;1292;48.020;7.822;2022-07-23T10:30:20;6.77;;;5.83;;
2564;SDS011;1292;48.020;7.822;2022-07-23T10:32:58;6.70;;;6.10;;
2564;SDS011;1292;48.020;7.822;2022-07-23T10:35:42;6.90;;;6.30;;
2564;SDS011;1292;48.020;7.822;2022-07-23T10:38:15;7.17;;;6.50;;
2564;SDS011;1292;48.020;7.822;2022-07-23T10:40:55;7.00;;;6.30;;
2564;SDS011;1292;48.020;7.822;2022-07-23T10:43:24;6.57;;;6.00;;
2564;SDS011;1292;48.020;7.822;2022-07-23T10:45:51;7.10;;;6.40;;
2564;SDS011;1292;48.020;7.822;2022-07-23T10:48:20;7.03;;;6.40;;
2564;SDS011;1292;48.020;7.822;2022-07-23T10:51:08;7.73;;;6.07;;
2564;SDS011;1292;48.020;7.822;2022-07-23T10:59:22;8.00;;;7.20;;
2564;SDS011;1292;48.020;7.822;2022-07-23T11:01:49;6.80;;;6.20;;
2564;SDS011;1292;48.020;7.822;2022-07-23T11:04:16;6.30;;;5.90;;
2564;SDS011;1292;48.020;7.822;2022-07-23T11:09:40;8.93;;;6.40;;
2564;SDS011;1292;48.020;7.822;2022-07-23T11:14:58;6.90;;;6.30;;
2564;SDS011;1292;48.020;7.822;2022-07-23T11:17:25;6.53;;;6.00;;
2564;SDS011;1292;48.020;7.822;2022-07-23T11:22:50;7.47;;;6.73;;
2564;SDS011;1292;48.020;7.822;2022-07-23T11:25:32;6.80;;;6.30;;
2564;SDS011;1292;48.020;7.822;2022-07-23T11:28:08;6.50;;;6.00;;
2564;SDS011;1292;48.020;7.822;2022-07-23T11:30:37;7.43;;;6.73;;
2564;SDS011;1292;48.020;7.822;2022-07-23T11:35:49;6.97;;;6.27;;
2564;SDS011;1292;48.020;7.822;2022-07-23T11:38:30;7.30;;;6.60;;
2564;SDS011;1292;48.020;7.822;2022-07-23T11:40:58;6.97;;;6.47;;
2564;SDS011;1292;48.020;7.822;2022-07-23T11:43:25;8.73;;;7.77;;
2564;SDS011;1292;48.020;7.822;2022-07-23T11:45:53;9.47;;;7.03;;
2564;SDS011;1292;48.020;7.822;2022-07-23T11:48:23;7.33;;;6.73;;
2564;SDS011;1292;48.020;7.822;2022-07-23T11:50:52;9.10;;;8.30;;
2564;SDS011;1292;48.020;7.822;2022-07-23T11:53:23;7.60;;;6.93;;
2564;SDS011;1292;48.020;7.822;2022-07-23T11:55:51;7.93;;;7.33;;
2564;SDS011;1292;48.020;7.822;2022-07-23T11:58:20;7.63;;;6.93;;
2564;SDS011;1292;48.020;7.822;2022-07-23T12:00:47;8.40;;;7.60;;
2564;SDS011;1292;48.020;7.822;2022-07-23T12:03:16;7.57;;;6.97;;
2564;SDS011;1292;48.020;7.822;2022-07-23T12:05:42;8.33;;;7.47;;
2564;SDS011;1292;48.020;7.822;2022-07-23T12:08:09;7.10;;;6.50;;
2564;SDS011;1292;48.020;7.822;2022-07-23T12:10:37;7.47;;;6.90;;
2564;SDS011;1292;48.020;7.822;2022-07-23T12:13:08;7.97;;;7.23;;
2564;SDS011;1292;48.020;7.822;2022-07-23T12:15:38;7.83;;;7.13;;
2564;SDS011;1292;48.020;7.822;2022-07-23T12:18:06;7.70;;;6.73;;
2564;SDS011;1292;48.020;7.822;2022-07-23T12:20:36;8.33;;;7.50;;
2564;SDS011;1292;48.020;7.822;2022-07-23T12:23:05;8.23;;;7.53;;
2564;SDS011;1292;48.020;7.822;2022-07-23T12:25:33;8.37;;;7.40;;
2564;SDS011;1292;48.020;7.822;2022-07-23T12:28:03;7.60;;;6.90;;
2564;SDS011;1292;48.020;7.822;2022-07-23T12:30:33;8.53;;;7.73;;
2564;SDS011;1292;48.020;7.822;2022-07-23T12:33:03;7.63;;;7.03;;
2564;SDS011;1292;48.020;7.822;2022-07-23T12:35:33;8.50;;;7.80;;
2564;SDS011;1292;48.020;7.822;2022-07-23T12:38:02;6.53;;;6.03;;
2564;SDS011;1292;48.020;7.822;2022-07-23T12:40:31;8.00;;;7.20;;
2564;SDS011;1292;48.020;7.822;2022-07-23T12:43:02;7.20;;;6.50;;
2564;SDS011;1292;48.020;7.822;2022-07-23T12:45:43;6.43;;;6.03;;
2564;SDS011;1292;48.020;7.822;2022-07-23T12:48:24;7.47;;;6.87;;
2564;SDS011;1292;48.020;7.822;2022-07-23T12:50:57;7.37;;;6.53;;
2564;SDS011;1292;48.020;7.822;2022-07-23T12:53:26;9.57;;;6.70;;
2564;SDS011;1292;48.020;7.822;2022-07-23T12:56:00;6.97;;;6.37;;
2564;SDS011;1292;48.020;7.822;2022-07-23T12:58:39;7.10;;;6.50;;
2564;SDS011;1292;48.020;7.822;2022-07-23T13:01:09;7.17;;;6.57;;
2564;SDS011;1292;48.020;7.822;2022-07-23T13:03:37;7.03;;;6.53;;
2564;SDS011;1292;48.020;7.822;2022-07-23T13:06:06;6.90;;;6.30;;
2564;SDS011;1292;48.020;7.822;2022-07-23T13:08:35;7.10;;;6.60;;
2564;SDS011;1292;48.020;7.822;2022-07-23T13:11:03;6.90;;;6.20;;
2564;SDS011;1292;48.020;7.822;2022-07-23T13:13:32;7.83;;;7.07;;
2564;SDS011;1292;48.020;7.822;2022-07-23T13:16:00;6.63;;;6.13;;
2564;SDS011;1292;48.020;7.822;2022-07-23T13:18:30;8.20;;;7.43;;
2564;SDS011;1292;48.020;7.822;2022-07-23T13:20:57;7.40;;;6.80;;
2564;SDS011;1292;48.020;7.822;2022-07-23T13:23:24;6.80;;;6.23;;
2564;SDS011;1292;48.020;7.822;2022-07-23T13:25:51;7.27;;;6.70;;
2564;SDS011;1292;48.020;7.822;2022-07-23T13:28:18;7.03;;;6.33;;
2564;SDS011;1292;48.020;7.822;2022-07-23T13:30:47;8.90;;;8.10;;
2564;SDS011;1292;48.020;7.822;2022-07-23T13:33:15;7.30;;;6.70;;
2564;SDS011;1292;48.020;7.822;2022-07-23T13:35:44;7.30;;;6.80;;
2564;SDS011;1292;48.020;7.822;2022-07-23T13:38:11;7.47;;;6.87;;
2564;SDS011;1292;48.020;7.822;2022-07-23T13:40:39;6.27;;;5.67;;
2564;SDS011;1292;48.020;7.822;2022-07-23T13:43:08;7.13;;;6.43;;
2564;SDS011;1292;48.020;7.822;2022-07-23T13:45:36;7.67;;;6.97;;
2564;SDS011;1292;48.020;7.822;2022-07-23T13:48:04;9.83;;;8.63;;
2564;SDS011;1292;48.020;7.822;2022-07-23T13:50:32;13.83;;;7.37;;
2564;SDS011;1292;48.020;7.822;2022-07-23T13:53:01;6.83;;;6.30;;
2564;SDS011;1292;48.020;7.822;2022-07-23T13:55:29;6.37;;;5.83;;
2564;SDS011;1292;48.020;7.822;2022-07-23T13:57:56;6.57;;;5.97;;
2564;SDS011;1292;48.020;7.822;2022-07-23T14:00:23;7.23;;;6.73;;
2564;SDS011;1292;48.020;7.822;2022-07-23T14:02:50;8.00;;;7.20;;
2564;SDS011;1292;48.020;7.822;2022-07-23T14:05:17;6.80;;;6.10;;
2564;SDS011;1292;48.020;7.822;2022-07-23T14:07:44;6.53;;;6.03;;
2564;SDS011;1292;48.020;7.822;2022-07-23T14:10:13;6.93;;;6.37;;
2564;SDS011;1292;48.020;7.822;2022-07-23T14:12:40;8.70;;;6.77;;
2564;SDS011;1292;48.020;7.822;2022-07-23T14:15:07;7.67;;;7.07;;
2564;SDS011;1292;48.020;7.822;2022-07-23T14:17:35;6.40;;;5.97;;
2564;SDS011;1292;48.020;7.822;2022-07-23T14:20:03;8.10;;;7.30;;
2564;SDS011;1292;48.020;7.822;2022-07-23T14:22:30;8.30;;;7.60;;
2564;SDS011;1292;48.020;7.822;2022-07-23T14:24:57;6.90;;;6.40;;
2564;SDS011;1292;48.020;7.822;2022-07-23T14:27:27;7.60;;;7.00;;
2564;SDS011;1292;48.020;7.822;2022-07-23T14:29:54;8.10;;;7.40;;
2564;SDS011;1292;48.020;7.822;2022-07-23T14:32:22;8.17;;;7.47;;
2564;SDS011;1292;48.020;7.822;2022-07-23T14:34:50;7.73;;;7.03;;
2564;SDS011;1292;48.020;7.822;2022-07-23T14:37:17;7.70;;;7.00;;
2564;SDS011;1292;48.020;7.822;2022-07-23T14:39:44;7.53;;;6.57;;
2564;SDS011;1292;48.020;7.822;2022-07-23T14:42:12;9.00;;;8.13;;
2564;SDS011;1292;48.020;7.822;2022-07-23T14:44:41;7.90;;;7.30;;
2564;SDS011;1292;48.020;7.822;2022-07-23T14:47:08;7.77;;;7.07;;
2564;SDS011;1292;48.020;7.822;2022-07-23T14:49:35;7.13;;;6.63;;
2564;SDS011;1292;48.020;7.822;2022-07-23T14:52:02;7.03;;;6.43;;
2564;SDS011;1292;48.020;7.822;2022-07-23T14:54:31;8.17;;;7.50;;
2564;SDS011;1292;48.020;7.822;2022-07-23T14:56:58;7.73;;;7.03;;
2564;SDS011;1292;48.020;7.822;2022-07-23T14:59:27;7.17;;;6.67;;
2564;SDS011;1292;48.020;7.822;2022-07-23T15:01:56;6.50;;;6.00;;
2564;SDS011;1292;48.020;7.822;2022-07-23T15:04:24;8.27;;;7.60;;
2564;SDS011;1292;48.020;7.822;2022-07-23T15:06:51;7.70;;;7.00;;
2564;SDS011;1292;48.020;7.822;2022-07-23T15:09:18;8.23;;;7.30;;
2564;SDS011;1292;48.020;7.822;2022-07-23T15:11:45;8.20;;;7.50;;
2564;SDS011;1292;48.020;7.822;2022-07-23T15:14:12;8.40;;;7.60;;
2564;SDS011;1292;48.020;7.822;2022-07-23T15:16:39;7.47;;;6.87;;
2564;SDS011;1292;48.020;7.822;2022-07-23T15:19:07;8.50;;;7.80;;
2564;SDS011;1292;48.020;7.822;2022-07-23T15:21:34;8.20;;;7.50;;
2564;SDS011;1292;48.020;7.822;2022-07-23T15:24:00;7.90;;;7.30;;
2564;SDS011;1292;48.020;7.822;2022-07-23T15:26:28;7.63;;;6.87;;
2564;SDS011;1292;48.020;7.822;2022-07-23T15:28:55;7.33;;;6.63;;
2564;SDS011;1292;48.020;7.822;2022-07-23T15:31:24;8.33;;;7.63;;
2564;SDS011;1292;48.020;7.822;2022-07-23T15:33:51;7.93;;;7.23;;
2564;SDS011;1292;48.020;7.822;2022-07-23T15:36:19;8.73;;;7.03;;
2564;SDS011;1292;48.020;7.822;2022-07-23T15:38:46;6.40;;;5.90;;
2564;SDS011;1292;48.020;7.822;2022-07-23T15:41:13;7.30;;;5.97;;
2564;SDS011;1292;48.020;7.822;2022-07-23T15:43:40;7.30;;;6.80;;
2564;SDS011;1292;48.020;7.822;2022-07-23T15:46:07;6.40;;;5.90;;
2564;SDS011;1292;48.020;7.822;2022-07-23T15:48:34;7.63;;;6.73;;
2564;SDS011;1292;48.020;7.822;2022-07-23T15:51:02;6.67;;;6.17;;
2564;SDS011;1292;48.020;7.822;2022-07-23T15:53:31;7.80;;;7.00;;
2564;SDS011;1292;48.020;7.822;2022-07-23T15:55:58;6.67;;;6.07;;
2564;SDS011;1292;48.020;7.822;2022-07-23T15:58:26;8.20;;;7.50;;
2564;SDS011;1292;48.020;7.822;2022-07-23T16:00:53;7.20;;;6.70;;
2564;SDS011;1292;48.020;7.822;2022-07-23T16:03:20;6.40;;;5.93;;
2564;SDS011;1292;48.020;7.822;2022-07-23T16:05:47;8.03;;;7.30;;
2564;SDS011;1292;48.020;7.822;2022-07-23T16:08:14;7.17;;;6.57;;
2564;SDS011;1292;48.020;7.822;2022-07-23T16:10:42;7.40;;;6.70;;
2564;SDS011;1292;48.020;7.822;2022-07-23T16:13:09;7.40;;;6.90;;
2564;SDS011;1292;48.020;7.822;2022-07-23T16:15:36;6.63;;;6.07;;
2564;SDS011;1292;48.020;7.822;2022-07-23T16:18:05;6.40;;;5.90;;
2564;SDS011;1292;48.020;7.822;2022-07-23T16:20:33;6.83;;;6.23;;
2564;SDS011;1292;48.020;7.822;2022-07-23T16:23:00;7.57;;;6.90;;
2564;SDS011;1292;48.020;7.822;2022-07-23T16:25:27;7.00;;;6.37;;
2564;SDS011;1292;48.020;7.822;2022-07-23T16:27:56;7.40;;;6.20;;
2564;SDS011;1292;48.020;7.822;2022-07-23T16:30:23;7.80;;;6.83;;
2564;SDS011;1292;48.020;7.822;2022-07-23T16:32:49;8.00;;;6.70;;
2564;SDS011;1292;48.020;7.822;2022-07-23T16:35:16;13.00;;;10.07;;
2564;SDS011;1292;48.020;7.822;2022-07-23T16:37:43;11.67;;;9.93;;
2564;SDS011;1292;48.020;7.822;2022-07-23T16:40:11;7.17;;;6.57;;
2564;SDS011;1292;48.020;7.822;2022-07-23T16:42:38;8.40;;;7.67;;
2564;SDS011;1292;48.020;7.822;2022-07-23T16:45:06;7.33;;;6.83;;
2564;SDS011;1292;48.020;7.822;2022-07-23T16:47:34;6.63;;;6.10;;
2564;SDS011;1292;48.020;7.822;2022-07-23T16:50:02;7.60;;;6.90;;
2564;SDS011;1292;48.020;7.822;2022-07-23T16:52:30;7.43;;;6.80;;
2564;SDS011;1292;48.020;7.822;2022-07-23T16:54:57;6.87;;;6.30;;
2564;SDS011;1292;48.020;7.822;2022-07-23T16:57:24;7.30;;;6.70;;
2564;SDS011;1292;48.020;7.822;2022-07-23T16:59:51;7.30;;;6.70;;
2564;SDS011;1292;48.020;7.822;2022-07-23T17:02:19;7.30;;;6.70;;
2564;SDS011;1292;48.020;7.822;2022-07-23T17:04:46;6.27;;;5.77;;
2564;SDS011;1292;48.020;7.822;2022-07-23T17:07:13;7.70;;;7.03;;
2564;SDS011;1292;48.020;7.822;2022-07-23T17:09:40;7.30;;;6.70;;
2564;SDS011;1292;48.020;7.822;2022-07-23T17:12:08;7.03;;;6.43;;
2564;SDS011;1292;48.020;7.822;2022-07-23T17:14:35;6.63;;;6.13;;
2564;SDS011;1292;48.020;7.822;2022-07-23T17:17:02;6.70;;;6.10;;
2564;SDS011;1292;48.020;7.822;2022-07-23T17:19:30;7.77;;;7.10;;
2564;SDS011;1292;48.020;7.822;2022-07-23T17:21:57;6.33;;;5.93;;
2564;SDS011;1292;48.020;7.822;2022-07-23T17:24:24;6.83;;;6.20;;
2564;SDS011;1292;48.020;7.822;2022-07-23T17:26:51;6.97;;;6.47;;
2564;SDS011;1292;48.020;7.822;2022-07-23T17:29:18;6.60;;;6.10;;
2564;SDS011;1292;48.020;7.822;2022-07-23T17:31:45;7.00;;;6.30;;
2564;SDS011;1292;48.020;7.822;2022-07-23T17:34:12;7.23;;;6.63;;
2564;SDS011;1292;48.020;7.822;2022-07-23T17:36:40;6.37;;;5.87;;
2564;SDS011;1292;48.020;7.822;2022-07-23T17:39:07;7.70;;;7.10;;
2564;SDS011;1292;48.020;7.822;2022-07-23T17:41:34;6.53;;;6.03;;
2564;SDS011;1292;48.020;7.822;2022-07-23T17:44:01;6.60;;;6.10;;
2564;SDS011;1292;48.020;7.822;2022-07-23T17:46:28;9.40;;;7.40;;
2564;SDS011;1292;48.020;7.822;2022-07-23T17:48:55;7.67;;;6.87;;
2564;SDS011;1292;48.020;7.822;2022-07-23T17:51:22;7.53;;;6.57;;
2564;SDS011;1292;48.020;7.822;2022-07-23T17:53:50;7.17;;;6.57;;
2564;SDS011;1292;48.020;7.822;2022-07-23T17:56:17;6.87;;;6.30;;
2564;SDS011;1292;48.020;7.822;2022-07-23T17:58:44;7.63;;;7.03;;
2564;SDS011;1292;48.020;7.822;2022-07-23T18:01:11;8.10;;;7.40;;
2564;SDS011;1292;48.020;7.822;2022-07-23T18:03:38;9.50;;;6.37;;
2564;SDS011;1292;48.020;7.822;2022-07-23T18:06:05;6.93;;;6.40;;
2564;SDS011;1292;48.020;7.822;2022-07-23T18:08:32;6.93;;;6.33;;
2564;SDS011;1292;48.020;7.822;2022-07-23T18:11:00;6.20;;;5.67;;
2564;SDS011;1292;48.020;7.822;2022-07-23T18:13:28;7.70;;;7.00;;
2564;SDS011;1292;48.020;7.822;2022-07-23T18:15:54;7.10;;;6.50;;
2564;SDS011;1292;48.020;7.822;2022-07-23T18:18:22;8.07;;;7.37;;
2564;SDS011;1292;48.020;7.822;2022-07-23T18:20:49;7.00;;;6.40;;
2564;SDS011;1292;48.020;7.822;2022-07-23T18:23:16;6.90;;;6.10;;
2564;SDS011;1292;48.020;7.822;2022-07-23T18:25:43;7.57;;;6.60;;
2564;SDS011;1292;48.020;7.822;2022-07-23T18:28:11;7.23;;;6.60;;
2564;SDS011;1292;48.020;7.822;2022-07-23T18:30:38;6.17;;;5.67;;
2564;SDS011;1292;48.020;7.822;2022-07-23T18:33:05;7.50;;;6.87;;
2564;SDS011;1292;48.020;7.822;2022-07-23T18:35:32;7.30;;;6.70;;
2564;SDS011;1292;48.020;7.822;2022-07-23T18:37:59;5.97;;;5.47;;
2564;SDS011;1292;48.020;7.822;2022-07-23T18:40:26;6.60;;;6.00;;
2564;SDS011;1292;48.020;7.822;2022-07-23T18:42:53;8.33;;;5.47;;
2564;SDS011;1292;48.020;7.822;2022-07-23T18:45:23;6.70;;;5.43;;
2564;SDS011;1292;48.020;7.822;2022-07-23T18:47:50;6.43;;;5.80;;
2564;SDS011;1292;48.020;7.822;2022-07-23T18:50:17;6.67;;;5.97;;
2564;SDS011;1292;48.020;7.822;2022-07-23T18:52:45;5.90;;;5.40;;
2564;SDS011;1292;48.020;7.822;2022-07-23T18:55:12;6.10;;;5.63;;
2564;SDS011;1292;48.020;7.822;2022-07-23T18:57:39;7.43;;;5.87;;
2564;SDS011;1292;48.020;7.822;2022-07-23T19:00:07;6.70;;;5.90;;
2564;SDS011;1292;48.020;7.822;2022-07-23T19:02:36;6.40;;;5.87;;
2564;SDS011;1292;48.020;7.822;2022-07-23T19:05:04;6.93;;;6.43;;
2564;SDS011;1292;48.020;7.822;2022-07-23T19:07:32;7.87;;;5.90;;
2564;SDS011;1292;48.020;7.822;2022-07-23T19:09:59;8.50;;;5.57;;
2564;SDS011;1292;48.020;7.822;2022-07-23T19:12:25;6.77;;;5.67;;
2564;SDS011;1292;48.020;7.822;2022-07-23T19:14:52;6.10;;;5.43;;
2564;SDS011;1292;48.020;7.822;2022-07-23T19:17:19;9.13;;;6.10;;
2564;SDS011;1292;48.020;7.822;2022-07-23T19:19:47;6.00;;;5.40;;
2564;SDS011;1292;48.020;7.822;2022-07-23T19:22:14;7.73;;;6.13;;
2564;SDS011;1292;48.020;7.822;2022-07-23T19:24:41;5.93;;;5.40;;
2564;SDS011;1292;48.020;7.822;2022-07-23T19:27:09;6.20;;;5.70;;
2564;SDS011;1292;48.020;7.822;2022-07-23T19:29:36;6.87;;;6.27;;
2564;SDS011;1292;48.020;7.822;2022-07-23T19:32:03;6.40;;;5.80;;
2564;SDS011;1292;48.020;7.822;2022-07-23T19:34:31;6.43;;;5.77;;
2564;SDS011;1292;48.020;7.822;2022-07-23T19:37:00;6.47;;;5.70;;
2564;SDS011;1292;48.020;7.822;2022-07-23T19:39:27;7.67;;;7.07;;
2564;SDS011;1292;48.020;7.822;2022-07-23T19:41:54;6.40;;;5.80;;
2564;SDS011;1292;48.020;7.822;2022-07-23T19:44:21;6.93;;;6.03;;
2564;SDS011;1292;48.020;7.822;2022-07-23T19:46:48;6.27;;;5.67;;
2564;SDS011;1292;48.020;7.822;2022-07-23T19:49:15;7.50;;;5.83;;
2564;SDS011;1292;48.020;7.822;2022-07-23T19:51:42;6.63;;;6.03;;
2564;SDS011;1292;48.020;7.822;2022-07-23T19:54:10;6.27;;;5.67;;
2564;SDS011;1292;48.020;7.822;2022-07-23T19:56:37;6.00;;;5.50;;
2564;SDS011;1292;48.020;7.822;2022-07-23T19:59:05;6.93;;;6.33;;
2564;SDS011;1292;48.020;7.822;2022-07-23T20:01:31;6.40;;;5.80;;
2564;SDS011;1292;48.020;7.822;2022-07-23T20:03:59;6.27;;;5.30;;
2564;SDS011;1292;48.020;7.822;2022-07-23T20:06:27;6.97;;;6.27;;
2564;SDS011;1292;48.020;7.822;2022-07-23T20:08:54;6.83;;;6.20;;
2564;SDS011;1292;48.020;7.822;2022-07-23T20:11:22;7.20;;;6.60;;
2564;SDS011;1292;48.020;7.822;2022-07-23T20:13:49;6.43;;;5.83;;
2564;SDS011;1292;48.020;7.822;2022-07-23T20:16:16;7.50;;;6.80;;
2564;SDS011;1292;48.020;7.822;2022-07-23T20:18:43;7.93;;;6.60;;
2564;SDS011;1292;48.020;7.822;2022-07-23T20:21:10;6.33;;;5.83;;
2564;SDS011;1292;48.020;7.822;2022-07-23T20:23:37;7.03;;;6.43;;
2564;SDS011;1292;48.020;7.822;2022-07-23T20:26:04;7.33;;;6.80;;
2564;SDS011;1292;48.020;7.822;2022-07-23T20:28:32;7.80;;;7.00;;
2564;SDS011;1292;48.020;7.822;2022-07-23T20:30:59;23.87;;;21.50;;
2564;SDS011;1292;48.020;7.822;2022-07-23T20:33:29;20.97;;;18.67;;
2564;SDS011;1292;48.020;7.822;2022-07-23T20:35:57;116.63;;;104.63;;
2564;SDS011;1292;48.020;7.822;2022-07-23T20:38:24;85.10;;;71.43;;
2564;SDS011;1292;48.020;7.822;2022-07-23T20:40:51;95.87;;;75.07;;
2564;SDS011;1292;48.020;7.822;2022-07-23T20:43:18;87.50;;;60.57;;
2564;SDS011;1292;48.020;7.822;2022-07-23T20:45:46;76.43;;;62.03;;
2564;SDS011;1292;48.020;7.822;2022-07-23T20:48:13;27.87;;;24.93;;
2564;SDS011;1292;48.020;7.822;2022-07-23T20:50:40;45.50;;;31.50;;
2564;SDS011;1292;48.020;7.822;2022-07-23T20:53:09;28.80;;;22.00;;
2564;SDS011;1292;48.020;7.822;2022-07-23T20:55:36;13.53;;;12.13;;
2564;SDS011;1292;48.020;7.822;2022-07-23T20:58:03;10.97;;;9.77;;
